createdAt,value
2018-08-24T00:00:29.782Z,20.40
2018-08-24T00:02:57.631Z,19.60
2018-08-24T00:05:25.492Z,21.00
2018-08-24T00:07:53.381Z,21.80
2018-08-24T00:10:21.188Z,20.50
2018-08-24T00:12:49.059Z,21.47
2018-08-24T00:15:16.926Z,21.93
2018-08-24T00:17:47.805Z,20.77
2018-08-24T00:20:15.609Z,21.47
2018-08-24T00:22:43.535Z,20.83
2018-08-24T00:25:11.347Z,20.80
2018-08-24T00:27:39.117Z,22.57
2018-08-24T00:30:07.189Z,21.13
2018-08-24T00:32:34.952Z,22.20
2018-08-24T00:35:02.836Z,21.60
2018-08-24T00:37:30.765Z,21.53
2018-08-24T00:39:58.645Z,21.40
2018-08-24T00:42:26.433Z,23.00
2018-08-24T00:44:54.217Z,21.23
2018-08-24T00:47:22.059Z,21.57
2018-08-24T00:49:50.109Z,22.13
2018-08-24T00:52:17.978Z,20.80
2018-08-24T00:54:45.783Z,20.90
2018-08-24T00:57:13.652Z,20.63
2018-08-24T00:59:41.513Z,20.37
2018-08-24T01:02:09.398Z,22.77
2018-08-24T01:04:37.689Z,21.77
2018-08-24T01:07:10.756Z,22.87
2018-08-24T01:09:39.374Z,21.93
2018-08-24T01:12:11.908Z,21.03
2018-08-24T01:14:41.140Z,21.77
2018-08-24T01:17:14.331Z,21.93
2018-08-24T01:19:42.630Z,24.00
2018-08-24T01:22:10.424Z,22.40
2018-08-24T01:24:38.291Z,22.67
2018-08-24T01:27:07.041Z,22.40
2018-08-24T01:29:36.754Z,21.10
2018-08-24T01:32:04.822Z,21.47
2018-08-24T01:34:33.200Z,21.97
2018-08-24T01:37:00.969Z,22.70
2018-08-24T01:39:28.826Z,22.23
2018-08-24T01:41:56.660Z,23.60
2018-08-24T01:44:24.757Z,21.90
2018-08-24T01:46:52.603Z,21.70
2018-08-24T01:49:20.448Z,21.40
2018-08-24T01:51:48.193Z,21.00
2018-08-24T01:54:15.981Z,23.57
2018-08-24T01:56:43.947Z,22.20
2018-08-24T01:59:12.543Z,22.70
2018-08-24T02:01:40.301Z,22.90
2018-08-24T02:04:08.222Z,22.80
2018-08-24T02:06:36.031Z,22.43
2018-08-24T02:09:05.393Z,22.17
2018-08-24T02:11:33.983Z,23.23
2018-08-24T02:14:07.020Z,23.87
2018-08-24T02:16:37.280Z,23.73
2018-08-24T02:19:09.289Z,22.80
2018-08-24T02:21:42.434Z,22.90
2018-08-24T02:24:10.975Z,22.47
2018-08-24T02:26:38.884Z,22.80
2018-08-24T02:29:06.705Z,22.37
2018-08-24T02:31:39.947Z,22.93
2018-08-24T02:34:07.781Z,23.03
2018-08-24T02:36:35.582Z,22.00
2018-08-24T02:39:04.084Z,24.00
2018-08-24T02:41:31.988Z,23.23
2018-08-24T02:43:59.862Z,23.60
2018-08-24T02:46:27.729Z,23.67
2018-08-24T02:48:55.584Z,22.13
2018-08-24T02:51:23.475Z,22.47
2018-08-24T02:53:51.326Z,23.90
2018-08-24T02:56:19.200Z,23.43
2018-08-24T02:58:47.041Z,23.47
2018-08-24T03:01:14.829Z,22.57
2018-08-24T03:03:42.685Z,23.47
2018-08-24T03:06:10.343Z,24.13
2018-08-24T03:08:38.227Z,23.20
2018-08-24T03:11:06.089Z,23.40
2018-08-24T03:13:33.869Z,24.43
2018-08-24T03:16:01.718Z,23.57
2018-08-24T03:18:29.613Z,23.40
2018-08-24T03:20:57.454Z,22.97
2018-08-24T03:23:25.324Z,24.00
2018-08-24T03:25:53.173Z,22.43
2018-08-24T03:28:20.960Z,22.67
2018-08-24T03:30:48.835Z,22.90
2018-08-24T03:33:16.602Z,23.70
2018-08-24T03:35:44.447Z,25.30
2018-08-24T03:38:12.234Z,25.63
2018-08-24T03:40:40.065Z,25.80
2018-08-24T03:43:07.867Z,24.40
2018-08-24T03:45:35.848Z,22.73
2018-08-24T03:48:03.715Z,24.70
2018-08-24T03:50:31.470Z,23.97
2018-08-24T03:52:59.367Z,23.40
2018-08-24T03:55:27.259Z,23.67
2018-08-24T03:57:55.061Z,25.30
2018-08-24T04:00:22.924Z,24.73
2018-08-24T04:02:50.788Z,24.97
2018-08-24T04:05:18.642Z,24.40
2018-08-24T04:07:46.513Z,24.43
2018-08-24T04:10:14.401Z,24.77
2018-08-24T04:12:42.308Z,24.00
2018-08-24T04:15:10.090Z,24.57
2018-08-24T04:17:43.918Z,24.20
2018-08-24T04:20:11.952Z,25.63
2018-08-24T04:22:39.788Z,23.20
2018-08-24T04:25:07.884Z,24.33
2018-08-24T04:27:35.710Z,24.07
2018-08-24T04:30:03.587Z,23.77
2018-08-24T04:32:31.445Z,24.77
2018-08-24T04:34:59.285Z,26.13
2018-08-24T04:37:27.085Z,24.60
2018-08-24T04:39:54.967Z,24.10
2018-08-24T04:42:22.853Z,25.30
2018-08-24T04:44:50.660Z,25.87
2018-08-24T04:47:18.486Z,25.17
2018-08-24T04:49:46.309Z,24.13
2018-08-24T04:52:14.199Z,24.53
2018-08-24T04:54:42.035Z,25.40
2018-08-24T04:57:09.844Z,25.33
2018-08-24T04:59:37.694Z,24.20
2018-08-24T05:02:05.648Z,23.77
2018-08-24T05:04:33.518Z,24.67
2018-08-24T05:07:01.378Z,25.13
2018-08-24T05:09:29.195Z,24.33
2018-08-24T05:11:57.017Z,24.40
2018-08-24T05:14:24.977Z,25.70
2018-08-24T05:16:52.754Z,26.20
2018-08-24T05:19:20.634Z,26.23
2018-08-24T05:21:48.487Z,27.63
2018-08-24T05:24:16.367Z,29.13
2018-08-24T05:26:44.237Z,27.03
2018-08-24T05:29:12.103Z,27.00
2018-08-24T05:31:39.961Z,28.03
2018-08-24T05:34:07.829Z,27.00
2018-08-24T05:36:35.682Z,28.10
2018-08-24T05:39:04.426Z,27.27
2018-08-24T05:41:32.260Z,27.27
2018-08-24T05:44:00.104Z,25.03
2018-08-24T05:46:27.892Z,26.43
2018-08-24T05:48:55.739Z,24.90
2018-08-24T05:51:23.651Z,25.10
2018-08-24T05:53:51.480Z,26.60
2018-08-24T05:56:19.366Z,25.90
2018-08-24T05:58:47.220Z,27.03
2018-08-24T06:01:15.077Z,26.03
2018-08-24T06:03:42.939Z,26.00
2018-08-24T06:06:10.806Z,26.43
2018-08-24T06:08:38.673Z,26.67
2018-08-24T06:11:06.450Z,26.00
2018-08-24T06:13:34.301Z,26.10
2018-08-24T06:16:02.219Z,27.60
2018-08-24T06:18:30.049Z,25.67
2018-08-24T06:20:57.931Z,27.90
2018-08-24T06:23:25.725Z,27.70
2018-08-24T06:25:53.562Z,27.33
2018-08-24T06:28:21.445Z,27.00
2018-08-24T06:30:49.280Z,26.37
2018-08-24T06:33:17.227Z,26.30
2018-08-24T06:35:45.020Z,26.83
2018-08-24T06:38:12.900Z,23.47
2018-08-24T06:40:40.592Z,25.80
2018-08-24T06:43:08.398Z,25.37
2018-08-24T06:45:36.262Z,25.70
2018-08-24T06:48:04.014Z,25.33
2018-08-24T06:50:31.856Z,26.20
2018-08-24T06:52:59.726Z,23.90
2018-08-24T06:55:27.869Z,23.83
2018-08-24T06:57:55.660Z,24.63
2018-08-24T07:00:28.715Z,23.73
2018-08-24T07:02:56.605Z,24.33
2018-08-24T07:05:24.420Z,25.20
2018-08-24T07:07:52.197Z,25.43
2018-08-24T07:10:20.053Z,24.60
2018-08-24T07:12:47.946Z,23.80
2018-08-24T07:15:15.789Z,24.43
2018-08-24T07:17:48.816Z,25.10
2018-08-24T07:20:16.667Z,23.27
2018-08-24T07:22:44.635Z,25.07
2018-08-24T07:25:12.545Z,28.03
2018-08-24T07:27:40.377Z,25.17
2018-08-24T07:30:08.281Z,25.57
2018-08-24T07:32:36.096Z,36.40
2018-08-24T07:35:03.964Z,25.87
2018-08-24T07:37:31.745Z,26.00
2018-08-24T07:39:59.604Z,24.63
2018-08-24T07:42:27.471Z,25.17
2018-08-24T07:44:58.507Z,24.30
2018-08-24T07:47:27.670Z,24.50
2018-08-24T07:49:55.470Z,24.10
2018-08-24T07:52:23.489Z,24.70
2018-08-24T07:54:51.228Z,24.97
2018-08-24T07:57:19.022Z,23.83
2018-08-24T07:59:46.933Z,24.07
2018-08-24T08:02:14.845Z,24.67
2018-08-24T08:04:42.669Z,25.13
2018-08-24T08:07:10.560Z,24.30
2018-08-24T08:09:38.414Z,24.47
2018-08-24T08:12:06.318Z,23.97
2018-08-24T08:14:34.167Z,23.13
2018-08-24T08:17:02.690Z,24.30
2018-08-24T08:19:31.390Z,23.87
2018-08-24T08:22:04.014Z,22.33
2018-08-24T08:24:32.031Z,24.50
2018-08-24T08:26:59.839Z,24.17
2018-08-24T08:29:32.844Z,24.70
2018-08-24T08:32:00.850Z,24.20
2018-08-24T08:34:28.778Z,24.50
2018-08-24T08:36:56.657Z,23.27
2018-08-24T08:39:24.493Z,23.23
2018-08-24T08:41:52.516Z,23.13
2018-08-24T08:44:20.249Z,23.47
2018-08-24T08:46:48.096Z,24.17
2018-08-24T08:49:15.961Z,22.70
2018-08-24T08:51:43.847Z,24.03
2018-08-24T08:54:11.688Z,24.70
2018-08-24T08:56:39.610Z,22.23
2018-08-24T08:59:07.428Z,23.37
2018-08-24T09:01:35.315Z,25.43
2018-08-24T09:04:03.211Z,26.00
2018-08-24T09:06:31.162Z,24.37
2018-08-24T09:08:58.900Z,24.40
2018-08-24T09:11:26.779Z,25.10
2018-08-24T09:13:54.646Z,25.17
2018-08-24T09:16:22.397Z,24.70
2018-08-24T09:18:55.392Z,24.77
2018-08-24T09:21:28.501Z,22.60
2018-08-24T09:24:01.536Z,24.00
2018-08-24T09:26:34.568Z,22.37
2018-08-24T09:29:06.386Z,24.43
2018-08-24T09:31:37.072Z,24.03
2018-08-24T09:34:04.914Z,22.27
2018-08-24T09:36:32.765Z,23.93
2018-08-24T09:39:00.640Z,25.40
2018-08-24T09:41:28.409Z,22.73
2018-08-24T09:43:57.765Z,23.40
2018-08-24T09:46:30.816Z,22.30
2018-08-24T09:49:03.924Z,21.53
2018-08-24T09:51:31.651Z,21.20
2018-08-24T09:54:04.793Z,21.30
2018-08-24T09:56:33.496Z,21.90
2018-08-24T09:59:01.447Z,21.30
2018-08-24T10:01:34.466Z,21.73
2018-08-24T10:04:07.509Z,19.93
2018-08-24T10:06:40.585Z,21.10
2018-08-24T10:09:09.049Z,19.17
2018-08-24T10:11:37.366Z,19.60
2018-08-24T10:14:05.551Z,20.50
2018-08-24T10:16:33.420Z,20.13
2018-08-24T10:19:01.594Z,18.30
2018-08-24T10:21:29.397Z,20.10
2018-08-24T10:23:57.170Z,19.40
2018-08-24T10:26:24.930Z,18.40
2018-08-24T10:28:52.720Z,19.37
2018-08-24T10:31:20.570Z,19.20
2018-08-24T10:33:48.509Z,20.60
2018-08-24T10:36:16.292Z,20.30
2018-08-24T10:38:44.077Z,18.70
2018-08-24T10:41:11.944Z,19.73
2018-08-24T10:43:39.801Z,18.83
2018-08-24T10:46:07.668Z,19.57
2018-08-24T10:48:35.456Z,19.70
2018-08-24T10:51:03.228Z,18.90
2018-08-24T10:53:31.065Z,18.33
2018-08-24T10:55:58.987Z,18.40
2018-08-24T10:58:26.805Z,19.50
2018-08-24T11:00:54.776Z,18.63
2018-08-24T11:03:22.645Z,17.97
2018-08-24T11:05:50.514Z,16.63
2018-08-24T11:08:18.368Z,17.27
2018-08-24T11:10:46.145Z,19.60
2018-08-24T11:13:14.004Z,19.67
2018-08-24T11:15:41.864Z,19.30
2018-08-24T11:18:11.432Z,20.30
2018-08-24T11:20:41.470Z,19.60
2018-08-24T11:23:09.414Z,20.70
2018-08-24T11:25:37.186Z,19.20
2018-08-24T11:28:04.996Z,15.27
2018-08-24T11:30:32.762Z,16.40
2018-08-24T11:33:00.638Z,15.47
2018-08-24T11:35:28.755Z,15.00
2018-08-24T11:37:56.576Z,16.80
2018-08-24T11:40:24.491Z,16.90
2018-08-24T11:42:52.318Z,15.43
2018-08-24T11:45:20.198Z,15.80
2018-08-24T11:47:48.071Z,16.00
2018-08-24T11:50:15.934Z,16.20
2018-08-24T11:52:43.767Z,18.13
2018-08-24T11:55:11.551Z,17.33
2018-08-24T11:57:39.344Z,16.83
2018-08-24T12:00:06.997Z,17.37
2018-08-24T12:02:34.835Z,16.50
2018-08-24T12:05:02.512Z,16.70
2018-08-24T12:07:30.360Z,18.40
2018-08-24T12:09:58.149Z,17.50
2018-08-24T12:12:25.994Z,17.97
2018-08-24T12:14:53.870Z,18.40
2018-08-24T12:17:27.044Z,18.97
2018-08-24T12:19:54.830Z,17.70
2018-08-24T12:22:22.585Z,19.00
2018-08-24T12:24:50.304Z,18.10
2018-08-24T12:27:18.067Z,17.77
2018-08-24T12:29:45.884Z,18.53
2018-08-24T12:32:13.649Z,18.30
2018-08-24T12:34:41.448Z,18.80
2018-08-24T12:37:11.473Z,19.00
2018-08-24T12:39:39.985Z,17.47
2018-08-24T12:42:08.677Z,18.53
2018-08-24T12:44:36.492Z,17.73
2018-08-24T12:47:04.240Z,17.53
2018-08-24T12:49:32.249Z,17.83
2018-08-24T12:52:00.065Z,18.13
2018-08-24T12:54:27.956Z,18.07
2018-08-24T12:56:55.823Z,17.63
2018-08-24T12:59:23.686Z,17.70
2018-08-24T13:01:51.525Z,17.90
2018-08-24T13:04:19.433Z,17.83
2018-08-24T13:06:47.296Z,17.00
2018-08-24T13:09:15.148Z,16.30
2018-08-24T13:11:43.032Z,18.50
2018-08-24T13:14:10.949Z,18.07
2018-08-24T13:16:38.798Z,17.27
2018-08-24T13:19:06.766Z,17.27
2018-08-24T13:21:34.735Z,17.37
2018-08-24T13:24:02.543Z,17.33
2018-08-24T13:26:30.339Z,18.03
2018-08-24T13:28:58.173Z,19.00
2018-08-24T13:31:25.957Z,18.57
2018-08-24T13:33:53.828Z,18.33
2018-08-24T13:36:21.698Z,18.07
2018-08-24T13:38:49.620Z,17.07
2018-08-24T13:41:17.513Z,18.00
2018-08-24T13:43:45.389Z,18.83
2018-08-24T13:46:19.126Z,17.50
2018-08-24T13:48:47.657Z,17.90
2018-08-24T13:51:15.876Z,19.00
2018-08-24T13:53:43.961Z,19.33
2018-08-24T13:56:11.862Z,17.90
2018-08-24T13:58:39.678Z,17.90
2018-08-24T14:01:07.591Z,18.73
2018-08-24T14:03:35.459Z,18.43
2018-08-24T14:06:03.262Z,18.40
2018-08-24T14:08:31.058Z,16.90
2018-08-24T14:10:59.259Z,16.53
2018-08-24T14:13:27.107Z,17.27
2018-08-24T14:15:54.944Z,17.47
2018-08-24T14:18:22.834Z,16.03
2018-08-24T14:20:50.770Z,16.63
2018-08-24T14:23:18.544Z,18.40
2018-08-24T14:25:46.440Z,21.67
2018-08-24T14:28:14.260Z,21.90
2018-08-24T14:30:42.054Z,24.53
2018-08-24T14:33:09.928Z,24.30
2018-08-24T14:35:37.779Z,24.77
2018-08-24T14:38:05.737Z,26.37
2018-08-24T14:40:33.512Z,24.37
2018-08-24T14:43:01.364Z,25.10
2018-08-24T14:45:29.146Z,24.30
2018-08-24T14:47:57.156Z,23.63
2018-08-24T14:50:25.335Z,22.77
2018-08-24T14:52:53.174Z,25.17
2018-08-24T14:55:21.016Z,22.60
2018-08-24T14:57:48.878Z,25.07
2018-08-24T15:00:16.640Z,24.40
2018-08-24T15:02:44.504Z,23.23
2018-08-24T15:05:12.925Z,23.50
2018-08-24T15:07:40.842Z,22.73
2018-08-24T15:10:09.293Z,23.43
2018-08-24T15:12:37.118Z,24.70
2018-08-24T15:15:05.242Z,22.70
2018-08-24T15:17:33.203Z,22.30
2018-08-24T15:20:02.334Z,22.33
2018-08-24T15:22:30.221Z,23.50
2018-08-24T15:24:57.879Z,24.07
2018-08-24T15:27:25.646Z,22.97
2018-08-24T15:29:53.659Z,23.87
2018-08-24T15:32:21.512Z,23.60
2018-08-24T15:34:49.881Z,23.70
2018-08-24T15:37:17.728Z,25.67
2018-08-24T15:39:45.521Z,25.40
2018-08-24T15:42:13.116Z,25.40
2018-08-24T15:44:41.081Z,25.50
2018-08-24T15:47:08.913Z,25.83
2018-08-24T15:49:36.764Z,26.10
2018-08-24T15:52:04.601Z,27.43
2018-08-24T15:54:32.305Z,25.50
2018-08-24T15:57:00.174Z,25.77
2018-08-24T15:59:28.741Z,24.87
2018-08-24T16:01:56.600Z,22.00
2018-08-24T16:04:24.389Z,22.43
2018-08-24T16:06:52.179Z,24.53
2018-08-24T16:09:20.695Z,24.10
2018-08-24T16:11:48.651Z,25.20
2018-08-24T16:14:16.448Z,23.63
2018-08-24T16:16:44.131Z,22.50
2018-08-24T16:19:11.988Z,24.60
2018-08-24T16:21:39.786Z,23.10
2018-08-24T16:24:07.667Z,22.20
2018-08-24T16:26:35.488Z,21.30
2018-08-24T16:29:03.408Z,21.30
2018-08-24T16:31:31.215Z,21.80
2018-08-24T16:33:59.086Z,21.07
2018-08-24T16:36:26.847Z,18.73
2018-08-24T16:38:54.758Z,20.47
2018-08-24T16:41:23.092Z,19.50
2018-08-24T16:43:50.997Z,18.60
2018-08-24T16:46:18.829Z,17.63
2018-08-24T16:48:46.746Z,19.13
2018-08-24T16:51:14.372Z,18.00
2018-08-24T16:53:42.264Z,17.70
2018-08-24T16:56:10.123Z,19.73
2018-08-24T16:58:37.949Z,19.17
2018-08-24T17:01:06.057Z,18.57
2018-08-24T17:03:33.913Z,19.73
2018-08-24T17:06:01.825Z,18.63
2018-08-24T17:08:29.639Z,19.13
2018-08-24T17:10:57.395Z,19.37
2018-08-24T17:13:25.070Z,19.30
2018-08-24T17:15:52.833Z,19.03
2018-08-24T17:18:20.729Z,18.33
2018-08-24T17:20:48.560Z,19.00
2018-08-24T17:23:16.331Z,18.40
2018-08-24T17:25:44.117Z,17.27
2018-08-24T17:28:11.983Z,19.20
2018-08-24T17:30:39.724Z,18.30
2018-08-24T17:33:07.541Z,18.73
2018-08-24T17:35:35.499Z,17.80
2018-08-24T17:38:03.331Z,18.90
2018-08-24T17:40:31.214Z,18.40
2018-08-24T17:42:59.082Z,17.40
2018-08-24T17:45:26.759Z,20.27
2018-08-24T17:47:54.624Z,18.20
2018-08-24T17:50:22.483Z,18.27
2018-08-24T17:52:50.077Z,17.97
2018-08-24T17:55:17.920Z,18.90
2018-08-24T17:57:45.763Z,20.00
2018-08-24T18:00:13.522Z,17.63
2018-08-24T18:02:41.402Z,18.47
2018-08-24T18:05:09.039Z,18.17
2018-08-24T18:07:36.642Z,18.33
2018-08-24T18:10:04.294Z,18.37
2018-08-24T18:12:31.945Z,18.50
2018-08-24T18:14:59.721Z,18.43
2018-08-24T18:17:27.190Z,18.73
2018-08-24T18:19:54.792Z,17.97
2018-08-24T18:22:22.398Z,18.27
2018-08-24T18:24:50.006Z,18.57
2018-08-24T18:27:17.981Z,19.63
2018-08-24T18:29:45.880Z,18.30
2018-08-24T18:32:13.779Z,19.77
2018-08-24T18:34:41.630Z,20.30
2018-08-24T18:37:09.465Z,19.30
2018-08-24T18:39:37.266Z,19.90
2018-08-24T18:42:05.171Z,18.93
2018-08-24T18:44:33.022Z,18.97
2018-08-24T18:47:00.972Z,18.83
2018-08-24T18:49:28.916Z,19.00
2018-08-24T18:51:56.805Z,18.07
2018-08-24T18:54:24.682Z,19.80
2018-08-24T18:56:52.625Z,18.73
2018-08-24T18:59:20.513Z,19.73
2018-08-24T19:01:48.389Z,19.70
2018-08-24T19:04:16.357Z,19.70
2018-08-24T19:06:44.236Z,19.10
2018-08-24T19:09:12.193Z,18.47
2018-08-24T19:11:45.156Z,19.30
2018-08-24T19:14:12.770Z,19.47
2018-08-24T19:16:40.432Z,18.33
2018-08-24T19:19:13.466Z,20.07
2018-08-24T19:21:41.535Z,19.57
2018-08-24T19:24:09.373Z,19.10
2018-08-24T19:26:37.367Z,19.30
2018-08-24T19:29:10.324Z,18.77
2018-08-24T19:31:37.914Z,17.87
2018-08-24T19:34:05.563Z,18.37
2018-08-24T19:36:33.155Z,18.93
2018-08-24T19:39:00.768Z,17.37
2018-08-24T19:41:33.626Z,18.00
2018-08-24T19:44:01.491Z,17.70
2018-08-24T19:46:29.135Z,18.67
2018-08-24T19:49:02.003Z,19.17
2018-08-24T19:51:29.818Z,19.20
2018-08-24T19:53:57.698Z,20.80
2018-08-24T19:56:25.435Z,19.40
2018-08-24T19:58:58.670Z,18.83
2018-08-24T20:01:26.469Z,19.37
2018-08-24T20:03:54.376Z,19.17
2018-08-24T20:06:27.388Z,19.63
2018-08-24T20:09:00.769Z,18.70
2018-08-24T20:11:28.657Z,18.43
2018-08-24T20:14:02.843Z,17.87
2018-08-24T20:16:35.805Z,18.43
2018-08-24T20:19:03.992Z,20.00
2018-08-24T20:21:31.884Z,18.17
2018-08-24T20:23:59.753Z,18.60
2018-08-24T20:26:27.470Z,18.40
2018-08-24T20:28:55.081Z,18.95
2018-08-24T20:31:22.692Z,18.92
2018-08-24T20:33:50.430Z,18.33
2018-08-24T20:36:18.221Z,18.40
2018-08-24T20:38:45.812Z,17.00
2018-08-24T20:41:13.394Z,17.63
2018-08-24T20:43:40.997Z,17.60
2018-08-24T20:46:08.600Z,17.37
2018-08-24T20:48:36.233Z,16.30
2018-08-24T20:51:03.826Z,17.73
2018-08-24T20:53:31.444Z,17.83
2018-08-24T20:55:59.063Z,17.97
2018-08-24T20:58:26.920Z,17.40
2018-08-24T21:00:54.736Z,18.27
2018-08-24T21:03:22.619Z,16.90
2018-08-24T21:05:50.564Z,18.00
2018-08-24T21:08:18.362Z,16.13
2018-08-24T21:10:46.206Z,16.50
2018-08-24T21:13:13.883Z,16.40
2018-08-24T21:15:41.778Z,17.20
2018-08-24T21:18:09.392Z,15.50
2018-08-24T21:20:37.276Z,15.83
2018-08-24T21:23:04.965Z,17.70
2018-08-24T21:25:32.605Z,17.67
2018-08-24T21:28:00.201Z,17.70
2018-08-24T21:30:27.812Z,17.20
2018-08-24T21:32:55.399Z,16.10
2018-08-24T21:35:23.006Z,16.47
2018-08-24T21:37:50.580Z,15.90
2018-08-24T21:40:18.370Z,14.90
2018-08-24T21:42:45.977Z,14.77
2018-08-24T21:45:14.477Z,15.47
2018-08-24T21:47:42.164Z,16.87
2018-08-24T21:50:09.763Z,16.00
2018-08-24T21:52:37.341Z,16.30
2018-08-24T21:55:04.983Z,16.97
2018-08-24T21:57:32.538Z,15.77
2018-08-24T22:00:00.120Z,16.93
2018-08-24T22:02:27.697Z,16.63
2018-08-24T22:04:55.502Z,15.60
2018-08-24T22:07:23.276Z,15.93
2018-08-24T22:09:51.228Z,15.83
2018-08-24T22:12:18.994Z,16.13
2018-08-24T22:14:47.067Z,14.50
2018-08-24T22:17:14.945Z,15.53
2018-08-24T22:19:42.699Z,16.53
2018-08-24T22:22:10.469Z,15.67
2018-08-24T22:24:38.367Z,15.70
2018-08-24T22:27:06.131Z,15.83
2018-08-24T22:29:34.000Z,15.80
2018-08-24T22:32:01.828Z,14.40
2018-08-24T22:34:29.605Z,15.10
2018-08-24T22:36:57.468Z,16.00
2018-08-24T22:39:25.341Z,15.60
2018-08-24T22:41:53.192Z,13.60
2018-08-24T22:44:20.956Z,13.70
2018-08-24T22:46:48.836Z,13.33
2018-08-24T22:49:16.733Z,12.80
2018-08-24T22:51:44.572Z,12.80
2018-08-24T22:54:12.438Z,12.53
2018-08-24T22:56:40.364Z,13.03
2018-08-24T22:59:08.166Z,12.17
2018-08-24T23:01:35.959Z,12.60
2018-08-24T23:04:03.791Z,12.40
2018-08-24T23:06:31.569Z,12.20
2018-08-24T23:08:59.464Z,12.03
2018-08-24T23:11:27.284Z,12.63
2018-08-24T23:13:55.067Z,11.70
2018-08-24T23:16:22.831Z,11.90
2018-08-24T23:18:50.591Z,10.70
2018-08-24T23:21:18.367Z,11.77
2018-08-24T23:23:46.227Z,12.27
2018-08-24T23:26:14.012Z,11.80
2018-08-24T23:28:41.856Z,11.53
2018-08-24T23:31:09.652Z,11.30
2018-08-24T23:33:37.606Z,11.70
2018-08-24T23:36:05.541Z,10.80
2018-08-24T23:38:33.344Z,11.13
2018-08-24T23:41:01.180Z,11.83
2018-08-24T23:43:28.977Z,10.93
2018-08-24T23:45:56.812Z,10.20
2018-08-24T23:48:24.584Z,9.70
2018-08-24T23:50:52.347Z,9.67
2018-08-24T23:53:20.107Z,9.87
2018-08-24T23:55:47.897Z,9.70
2018-08-24T23:58:15.655Z,9.17
